West Essex Park Conservancy

Temperature/Humidity/Waterlevel monitor

10-23 02:10     F   %    Z  mov    seq 
09-12 17:27,   74, 51, 44.7 206  25392
09-12 17:06,   74, 51, 44.5 206  24428
09-09 21:43,   68, 84,  0.0 247  32216
09-08 16:50,   86, 47,  0.0 247  16853
09-08 16:30,   88, 46,  0.0 247  15912
09-08 16:08,   88, 48,  0.0 247  14905
09-08 15:48,   87, 48,  0.0 247  13968
09-08 15:27,   89, 48,  0.0 247  12964
09-08 15:06,   89, 46,  0.0 247  12007
09-08 14:46,   88, 46,  0.0 247  11070
09-08 14:25,   89, 46,  0.0 247  10084
09-08 14:03,   88, 46,  0.0 247   9033
09-08 13:42,   89, 45,  0.0 247   8093
09-08 13:21,   97, 41,  0.0 247   7089
09-08 13:00,   99, 40,  0.0 247   6131
09-08 12:40,   99, 41,  0.0 247   5175
09-08 12:20,   93, 46,  0.0 247   4218
09-08 11:59,   92, 49,  0.0 247   3258
09-08 11:38,   92, 47,  0.0 247   2301
09-08 11:18,   91, 45,  0.0 247   1343
09-08 10:57,   98, 44,  0.0 247    386
09-08 10:37,   95, 46,  0.0 247  64985
09-08 10:16,   97, 46,  0.0 247  64000
09-08 09:55,   94, 49,  0.0 247  63021
09-08 09:33,   95, 49,  0.0 247  61969
09-08 09:12,   93, 52,  0.0 247  61011
09-08 08:52,   89, 63,  0.0 247  60051
09-08 08:32,   85, 70,  0.0 247  59114
09-08 08:10,   76, 79,  0.0 247  58108
09-08 07:50,   64, 87,  0.0 247  57148
09-08 07:29,   54, 90,  0.0 247  56190
09-08 07:09,   53, 90,  0.0 247  55234
09-08 06:48,   51, 90,  0.0 247  54278
09-08 06:28,   51, 90,  0.0 247  53321
09-08 06:07,   51, 90,  0.0 247  52366
09-08 05:47,   51, 90,  0.0 247  51410
09-08 05:26,   50, 90,  0.0 247  50454
09-08 05:06,   50, 90,  0.0 247  49496
09-08 04:45,   50, 89,  0.0 247  48541
09-08 04:25,   51, 90,  0.0 247  47585

Go to the West Essex Park Conservancy birding log .